createdAt,value
2022-09-12T00:01:04.010Z,99.90
2022-09-12T00:06:22.398Z,99.90
2022-09-12T00:11:26.002Z,99.90
2022-09-12T00:16:30.202Z,99.90
2022-09-12T00:21:36.557Z,99.90
2022-09-12T00:26:38.443Z,99.90
2022-09-12T00:31:40.291Z,99.90
2022-09-12T00:36:42.201Z,99.90
2022-09-12T00:41:44.705Z,99.90
2022-09-12T00:47:01.894Z,99.90
2022-09-12T00:52:09.038Z,99.90
2022-09-12T00:57:12.106Z,99.90
2022-09-12T01:02:14.056Z,99.90
2022-09-12T01:07:16.123Z,99.90
2022-09-12T01:12:18.922Z,99.90
2022-09-12T01:17:21.224Z,99.90
2022-09-12T01:23:02.390Z,99.90
2022-09-12T01:28:22.401Z,99.90
2022-09-12T01:33:39.273Z,99.90
2022-09-12T01:38:46.970Z,99.90
2022-09-12T01:43:52.717Z,99.90
2022-09-12T01:49:20.917Z,99.90
2022-09-12T01:54:27.046Z,99.90
2022-09-12T01:59:33.437Z,99.90
2022-09-12T02:04:53.395Z,99.90
2022-09-12T02:10:00.771Z,99.90
2022-09-12T02:15:08.013Z,99.90
2022-09-12T02:20:47.960Z,99.90
2022-09-12T02:26:17.774Z,99.90
2022-09-12T02:31:31.682Z,99.90
2022-09-12T02:36:43.477Z,99.90
2022-09-12T02:41:46.315Z,99.90
2022-09-12T02:46:51.038Z,99.90
2022-09-12T02:51:52.846Z,99.90
2022-09-12T02:56:54.838Z,99.90
2022-09-12T03:02:18.644Z,99.90
2022-09-12T03:07:38.549Z,99.90
2022-09-12T03:12:55.502Z,99.90
2022-09-12T03:18:32.691Z,99.90
2022-09-12T03:23:44.938Z,99.90
2022-09-12T03:28:47.830Z,99.90
2022-09-12T03:33:49.630Z,99.90
2022-09-12T03:38:52.109Z,99.90
2022-09-12T03:43:53.933Z,99.90
2022-09-12T03:48:55.721Z,99.90
2022-09-12T03:53:57.535Z,99.90
2022-09-12T03:58:59.368Z,99.90
2022-09-12T04:04:01.347Z,99.90
2022-09-12T04:09:03.731Z,99.90
2022-09-12T04:14:05.605Z,99.90
2022-09-12T04:19:07.420Z,99.90
2022-09-12T04:24:09.273Z,99.90
2022-09-12T04:29:12.352Z,99.90
2022-09-12T04:34:15.139Z,99.90
2022-09-12T04:39:17.052Z,99.90
2022-09-12T04:44:19.882Z,99.90
2022-09-12T04:49:21.665Z,99.90
2022-09-12T04:54:29.235Z,99.90
2022-09-12T04:59:31.064Z,99.90
2022-09-12T05:04:32.945Z,99.90
2022-09-12T05:09:36.755Z,99.90
2022-09-12T05:14:40.610Z,99.90
2022-09-12T05:19:42.459Z,99.90
2022-09-12T05:24:49.854Z,99.90
2022-09-12T05:29:53.507Z,99.90
2022-09-12T05:34:55.307Z,99.90
2022-09-12T05:39:58.631Z,99.90
2022-09-12T05:45:00.630Z,99.90
2022-09-12T05:50:02.566Z,99.90
2022-09-12T05:55:05.357Z,99.90
2022-09-12T06:00:09.834Z,99.90
2022-09-12T06:05:12.068Z,99.90
2022-09-12T06:10:14.217Z,99.90
2022-09-12T06:15:17.331Z,99.90
2022-09-12T06:20:22.079Z,99.90
2022-09-12T06:25:24.732Z,99.90
2022-09-12T06:30:28.640Z,99.90
2022-09-12T06:35:30.539Z,99.90
2022-09-12T06:40:32.903Z,99.90
2022-09-12T06:45:35.842Z,99.90
2022-09-12T06:50:37.624Z,99.90
2022-09-12T06:55:39.730Z,99.90
2022-09-12T07:00:41.773Z,99.90
2022-09-12T07:05:45.539Z,99.90
2022-09-12T07:10:48.059Z,99.90
2022-09-12T07:15:50.113Z,99.90
2022-09-12T07:21:10.875Z,99.90
2022-09-12T07:26:24.146Z,99.90
2022-09-12T07:31:38.654Z,99.90
2022-09-12T07:36:40.599Z,99.90
2022-09-12T07:41:42.540Z,99.90
2022-09-12T07:46:44.495Z,99.90
2022-09-12T07:51:46.304Z,99.90
2022-09-12T07:56:48.097Z,99.90
2022-09-12T08:01:49.935Z,99.90
2022-09-12T08:06:51.896Z,95.90
2022-09-12T08:11:53.697Z,96.40
2022-09-12T08:16:55.648Z,94.40
2022-09-12T08:21:58.607Z,92.00
2022-09-12T08:27:00.577Z,91.90
2022-09-12T08:32:03.499Z,91.60
2022-09-12T08:37:05.560Z,91.30
2022-09-12T08:47:25.534Z,90.00
2022-09-12T08:52:55.910Z,90.00
2022-09-12T08:58:00.548Z,85.60
2022-09-12T09:03:02.300Z,87.20
2022-09-12T09:08:19.296Z,86.80
2022-09-12T09:13:54.990Z,82.10
2022-09-12T09:18:59.037Z,83.00
2022-09-12T09:24:12.957Z,82.00
2022-09-12T09:29:19.549Z,83.00
2022-09-12T09:34:21.759Z,83.20
2022-09-12T09:39:32.338Z,81.30
2022-09-12T09:44:34.662Z,79.50
2022-09-12T09:49:36.694Z,81.00
2022-09-12T09:54:42.949Z,82.40
2022-09-12T09:59:44.848Z,82.10
2022-09-12T10:04:55.229Z,83.60
2022-09-12T10:10:28.685Z,86.70
2022-09-12T10:15:30.520Z,83.10
2022-09-12T10:20:41.416Z,79.80
2022-09-12T10:25:47.311Z,76.90
2022-09-12T10:30:53.327Z,77.10
2022-09-12T10:35:56.024Z,76.10
2022-09-12T10:41:01.257Z,75.40
2022-09-12T10:46:18.317Z,74.40
2022-09-12T10:51:25.952Z,72.00
2022-09-12T10:56:39.027Z,72.60
2022-09-12T11:02:14.394Z,73.00
2022-09-12T11:07:34.391Z,76.40
2022-09-12T11:12:39.087Z,77.00
2022-09-12T11:18:05.577Z,77.40
2022-09-12T11:23:30.688Z,76.50
2022-09-12T11:29:18.055Z,74.50
2022-09-12T11:34:46.226Z,72.10
2022-09-12T11:39:55.594Z,71.70
2022-09-12T11:45:29.283Z,68.60
2022-09-12T11:50:32.115Z,68.20
2022-09-12T11:56:19.341Z,66.80
2022-09-12T12:01:25.286Z,68.80
2022-09-12T12:06:58.045Z,70.00
2022-09-12T12:12:06.690Z,68.70
2022-09-12T12:17:22.828Z,66.40
2022-09-12T12:22:25.466Z,65.60
2022-09-12T12:27:54.096Z,67.70
2022-09-12T12:33:06.860Z,68.10
2022-09-12T12:38:31.748Z,67.70
2022-09-12T12:43:34.734Z,67.00
2022-09-12T12:48:54.363Z,66.10
2022-09-12T12:53:56.348Z,64.40
2022-09-12T12:59:00.992Z,65.10
2022-09-12T13:04:05.653Z,68.80
2022-09-12T13:09:24.649Z,67.50
2022-09-12T13:14:59.297Z,69.60
2022-09-12T13:20:26.670Z,69.50
2022-09-12T13:25:35.785Z,69.70
2022-09-12T13:30:40.626Z,67.00
2022-09-12T13:35:57.978Z,65.40
2022-09-12T13:41:26.661Z,63.00
2022-09-12T13:46:31.763Z,62.80
2022-09-12T13:51:33.845Z,61.70
2022-09-12T13:56:47.434Z,62.10
2022-09-12T14:01:49.713Z,63.20
2022-09-12T14:06:52.711Z,64.00
2022-09-12T14:11:56.834Z,64.90
2022-09-12T14:16:59.286Z,63.00
2022-09-12T14:22:02.195Z,64.00
2022-09-12T14:27:04.642Z,63.90
2022-09-12T14:32:26.128Z,64.20
2022-09-12T14:37:27.966Z,64.30
2022-09-12T14:42:32.475Z,63.90
2022-09-12T14:47:41.151Z,62.00
2022-09-12T14:52:44.128Z,64.40
2022-09-12T14:57:47.892Z,65.70
2022-09-12T15:02:50.915Z,66.30
2022-09-12T15:08:02.036Z,67.70
2022-09-12T15:13:10.268Z,66.70
2022-09-12T15:18:14.991Z,68.20
2022-09-12T15:23:51.502Z,68.20
2022-09-12T15:28:53.657Z,68.00
2022-09-12T15:33:57.187Z,70.10
2022-09-12T15:39:00.095Z,71.20
2022-09-12T15:44:04.124Z,72.20
2022-09-12T15:49:07.094Z,72.10
2022-09-12T15:54:11.493Z,72.10
2022-09-12T15:59:13.642Z,73.10
2022-09-12T16:04:21.215Z,72.90
2022-09-12T16:09:23.876Z,74.20
2022-09-12T16:14:25.662Z,75.10
2022-09-12T16:19:27.499Z,75.20
2022-09-12T16:24:30.573Z,79.10
2022-09-12T16:29:32.628Z,82.40
2022-09-12T16:34:35.514Z,84.30
2022-09-12T16:39:37.435Z,90.00
2022-09-12T16:44:39.338Z,89.90
2022-09-12T16:49:41.213Z,90.60
2022-09-12T16:54:44.430Z,90.30
2022-09-12T16:59:46.214Z,91.00
2022-09-12T17:04:48.005Z,91.30
2022-09-12T17:09:49.804Z,93.70
2022-09-12T17:14:51.874Z,95.50
2022-09-12T17:19:53.690Z,99.20
2022-09-12T17:24:55.506Z,99.40
2022-09-12T17:29:57.317Z,99.90
2022-09-12T17:35:00.207Z,99.90
2022-09-12T17:40:03.728Z,99.90
2022-09-12T17:45:06.479Z,99.90
2022-09-12T17:50:30.346Z,99.90
2022-09-12T17:55:34.067Z,99.90
2022-09-12T18:00:54.627Z,99.90
2022-09-12T18:05:56.634Z,99.90
2022-09-12T18:11:06.658Z,99.90
2022-09-12T18:16:10.710Z,99.90
2022-09-12T18:21:12.634Z,99.90
2022-09-12T18:26:14.791Z,99.90
2022-09-12T18:31:18.518Z,99.90
2022-09-12T18:36:21.346Z,99.90
2022-09-12T18:41:24.828Z,99.90
2022-09-12T18:46:28.932Z,99.90
2022-09-12T18:51:34.098Z,99.90
2022-09-12T18:56:38.341Z,99.90
2022-09-12T19:01:40.702Z,99.90
2022-09-12T19:06:45.445Z,99.90
2022-09-12T19:11:50.648Z,99.90
2022-09-12T19:16:53.207Z,99.90
2022-09-12T19:21:55.002Z,99.90
2022-09-12T19:26:56.857Z,99.90
2022-09-12T19:31:58.677Z,99.90
2022-09-12T19:37:00.590Z,99.90
2022-09-12T19:42:02.500Z,99.90
2022-09-12T19:47:04.307Z,99.90
2022-09-12T19:52:06.148Z,99.90
2022-09-12T19:57:07.982Z,99.90
2022-09-12T20:02:09.962Z,99.90
2022-09-12T20:07:11.758Z,99.90
2022-09-12T20:12:14.485Z,99.90
2022-09-12T20:17:16.295Z,99.90
2022-09-12T20:22:18.124Z,99.90
2022-09-12T20:27:20.724Z,99.90
2022-09-12T20:32:22.634Z,99.90
2022-09-12T20:37:24.555Z,99.90
2022-09-12T20:42:26.472Z,99.90
2022-09-12T20:47:28.334Z,99.90
2022-09-12T20:52:30.126Z,99.90
2022-09-12T20:57:32.002Z,99.90
2022-09-12T21:02:33.988Z,99.90
2022-09-12T21:07:36.022Z,99.90
2022-09-12T21:12:37.871Z,99.90
2022-09-12T21:17:39.692Z,99.90
2022-09-12T21:22:41.543Z,99.90
2022-09-12T21:27:43.438Z,99.90
2022-09-12T21:32:45.254Z,99.90
2022-09-12T21:37:47.223Z,99.90
2022-09-12T21:42:49.733Z,99.90
2022-09-12T21:47:51.551Z,99.90
2022-09-12T21:52:53.354Z,99.90
2022-09-12T21:57:55.493Z,99.90
2022-09-12T22:02:57.936Z,99.90
2022-09-12T22:08:00.713Z,99.90
2022-09-12T22:13:02.720Z,99.90
2022-09-12T22:18:04.987Z,99.90
2022-09-12T22:23:25.389Z,99.90
2022-09-12T22:28:27.322Z,99.90
2022-09-12T22:33:29.100Z,99.90
2022-09-12T22:38:31.309Z,99.90
2022-09-12T22:43:34.235Z,99.90
2022-09-12T22:48:37.329Z,99.90
2022-09-12T22:53:39.503Z,99.90
2022-09-12T22:58:42.204Z,99.90
2022-09-12T23:03:44.581Z,99.90
2022-09-12T23:08:46.415Z,99.90
2022-09-12T23:13:49.634Z,99.90
2022-09-12T23:18:51.761Z,99.90
2022-09-12T23:23:53.585Z,99.90
2022-09-12T23:28:57.568Z,99.90
2022-09-12T23:34:02.037Z,99.90
2022-09-12T23:39:04.844Z,99.90
2022-09-12T23:44:06.667Z,99.90
2022-09-12T23:49:08.969Z,99.90
2022-09-12T23:54:10.754Z,99.90
2022-09-12T23:59:12.606Z,99.90
